Terminal Aerodrome Forecast
Issued by NWS Wilmington, NC

Home | Current Version | Previous Version | Text Only | Print | Product List | Glossary On
Versions: 1 2 3 4 5 6 7 8 9 10 11 12 13 14 15
000
FTUS42 KILM 272300
TAFILM
TAF
KILM 272322Z 2800/2824 00000KT P6SM BKN250
     FM280900 VRB02KT 3SM BR SCT025 BKN150
     FM281400 22007KT P6SM BKN020 BKN100=

USA.gov is the U.S. government's official web portal to all federal, state and local government web resources and services.